createdAt,value
2022-09-12T00:07:43.389Z,90.80
2022-09-12T00:17:47.058Z,94.03
2022-09-12T00:27:52.158Z,95.90
2022-09-12T00:37:55.928Z,94.80
2022-09-12T00:48:04.960Z,97.47
2022-09-12T00:58:13.808Z,93.03
2022-09-12T01:08:19.420Z,91.13
2022-09-12T01:18:32.352Z,94.80
2022-09-12T01:29:05.541Z,94.00
2022-09-12T01:39:21.477Z,91.40
2022-09-12T01:49:28.692Z,97.07
2022-09-12T01:59:40.040Z,92.70
2022-09-12T02:09:49.072Z,96.07
2022-09-12T02:19:58.623Z,93.63
2022-09-12T02:30:02.490Z,92.60
2022-09-12T02:40:09.114Z,92.57
2022-09-12T02:50:13.466Z,92.37
2022-09-12T03:00:19.028Z,94.40
2022-09-12T03:10:30.426Z,97.00
2022-09-12T03:20:47.088Z,94.90
2022-09-12T03:30:54.442Z,94.23
2022-09-12T03:40:59.785Z,96.60
2022-09-12T03:51:04.490Z,94.83
2022-09-12T04:01:15.145Z,94.27
2022-09-12T04:11:20.774Z,105.10
2022-09-12T04:21:26.136Z,102.47
2022-09-12T04:31:29.756Z,107.20
2022-09-12T04:41:37.415Z,103.33
2022-09-12T04:51:42.880Z,118.27
2022-09-12T05:01:48.800Z,104.07
2022-09-12T05:12:07.892Z,106.97
2022-09-12T05:22:13.019Z,101.37
2022-09-12T05:32:16.689Z,97.30
2022-09-12T05:42:21.837Z,100.37
2022-09-12T05:52:25.559Z,106.30
2022-09-12T06:02:30.568Z,100.53
2022-09-12T06:12:34.312Z,102.67
2022-09-12T06:22:39.630Z,99.67
2022-09-12T06:32:43.453Z,96.87
2022-09-12T06:42:48.836Z,97.03
2022-09-12T06:53:08.388Z,97.87
2022-09-12T07:03:13.546Z,101.77
2022-09-12T07:13:17.321Z,104.67
2022-09-12T07:23:22.520Z,105.43
2022-09-12T07:33:29.460Z,107.10
2022-09-12T07:43:34.747Z,102.77
2022-09-12T07:53:40.995Z,101.37
2022-09-12T08:03:48.756Z,103.73
2022-09-12T08:13:55.594Z,104.10
2022-09-12T08:24:03.885Z,110.37
2022-09-12T08:34:08.750Z,121.23
2022-09-12T08:44:48.351Z,122.65
2022-09-12T08:54:51.971Z,130.77
2022-09-12T09:05:02.958Z,128.23
2022-09-12T09:15:34.235Z,138.15
2022-09-12T09:25:47.754Z,141.23
2022-09-12T09:36:00.624Z,141.73
2022-09-12T09:46:07.735Z,164.48
2022-09-12T09:56:23.190Z,170.52
2022-09-12T10:06:35.476Z,169.98
2022-09-12T10:16:53.726Z,175.57
2022-09-12T10:27:08.709Z,196.80
2022-09-12T10:37:21.007Z,183.75
2022-09-12T10:47:32.832Z,187.20
2022-09-12T10:58:01.154Z,198.77
2022-09-12T11:08:24.164Z,194.65
2022-09-12T11:19:08.102Z,213.68
2022-09-12T11:29:25.121Z,199.07
2022-09-12T11:39:37.887Z,222.10
2022-09-12T11:49:49.038Z,212.25
2022-09-12T11:59:58.136Z,238.77
2022-09-12T12:10:03.389Z,234.80
2022-09-12T12:20:09.551Z,212.52
2022-09-12T12:31:03.445Z,229.15
2022-09-12T12:41:45.474Z,228.30
2022-09-12T12:52:02.491Z,202.07
2022-09-12T13:02:06.617Z,217.23
2022-09-12T13:12:19.110Z,193.85
2022-09-12T13:22:25.929Z,186.07
2022-09-12T13:32:31.858Z,195.23
2022-09-12T13:42:46.263Z,157.25
2022-09-12T13:52:56.483Z,162.75
2022-09-12T14:03:18.060Z,147.57
2022-09-12T14:13:26.895Z,134.50
2022-09-12T14:23:33.633Z,125.57
2022-09-12T14:33:51.421Z,120.23
2022-09-12T14:43:59.592Z,117.23
2022-09-12T14:54:05.056Z,112.87
2022-09-12T15:04:08.691Z,109.43
2022-09-12T15:14:16.214Z,111.77
2022-09-12T15:24:19.546Z,108.87
2022-09-12T15:34:24.393Z,105.63
2022-09-12T15:44:27.847Z,108.33
2022-09-12T15:54:32.668Z,109.70
2022-09-12T16:04:36.462Z,110.90
2022-09-12T16:14:41.513Z,114.57
2022-09-12T16:24:45.285Z,108.67
2022-09-12T16:34:50.998Z,98.60
2022-09-12T16:44:54.669Z,98.50
2022-09-12T16:54:59.720Z,105.67
2022-09-12T17:05:03.335Z,105.40
2022-09-12T17:15:10.057Z,104.43
2022-09-12T17:25:13.842Z,105.33
2022-09-12T17:35:18.998Z,110.90
2022-09-12T17:45:22.770Z,114.13
2022-09-12T17:55:32.169Z,109.03
2022-09-12T18:05:35.838Z,114.53
2022-09-12T18:15:41.198Z,103.63
2022-09-12T18:25:44.963Z,100.40
2022-09-12T18:35:49.961Z,125.07
2022-09-12T18:45:53.632Z,105.97
2022-09-12T18:56:04.158Z,102.53
2022-09-12T19:06:11.694Z,96.67
2022-09-12T19:16:19.921Z,121.17
2022-09-12T19:26:23.856Z,107.17
2022-09-12T19:36:46.384Z,125.93
2022-09-12T19:46:51.236Z,157.83
2022-09-12T19:56:56.096Z,110.43
2022-09-12T20:06:59.904Z,102.80
2022-09-12T20:17:04.846Z,123.33
2022-09-12T20:27:08.511Z,119.73
2022-09-12T20:37:13.589Z,118.87
2022-09-12T20:47:17.202Z,106.83
2022-09-12T20:57:23.260Z,109.93
2022-09-12T21:07:26.842Z,106.63
2022-09-12T21:17:31.993Z,102.60
2022-09-12T21:27:35.713Z,97.27
2022-09-12T21:37:40.815Z,114.50
2022-09-12T21:47:44.432Z,120.17
2022-09-12T21:57:49.537Z,105.63
2022-09-12T22:07:53.763Z,109.77
2022-09-12T22:17:59.132Z,111.47
2022-09-12T22:28:03.728Z,108.37
2022-09-12T22:38:09.011Z,109.27
2022-09-12T22:48:12.635Z,105.53
2022-09-12T22:58:17.688Z,108.80
2022-09-12T23:08:21.261Z,120.40
2022-09-12T23:18:26.569Z,119.73
2022-09-12T23:28:30.378Z,103.53
2022-09-12T23:38:37.275Z,113.87
2022-09-12T23:48:41.991Z,101.77
2022-09-12T23:58:47.282Z,121.53
